Time;durP1;ratioP1;P1;durP2;ratioP2;P2;SDS_P1;SDS_P2;PMS_P1;PMS_P2;Temp;Humidity;BMP_temperature;BMP_pressure;BME280_temperature;BME280_humidity;BME280_pressure;Samples;Min_cycle;Max_cycle;Signal;HPM_P1;HPM_P2
2023/01/10 00:01:07;;;;;;;2.38;0.98;;;6.40;83.50;;;;;;5005321;28;20128;-64
2023/01/10 00:03:32;;;;;;;4.18;1.35;;;6.40;83.70;;;;;;5006043;28;20111;-64
2023/01/10 00:05:58;;;;;;;1.45;0.90;;;6.40;83.80;;;;;;5004525;28;20137;-64
2023/01/10 00:08:23;;;;;;;1.95;0.80;;;6.40;83.90;;;;;;5006692;28;20038;-63
2023/01/10 00:10:49;;;;;;;1.83;0.82;;;6.40;84.00;;;;;;5004251;28;20098;-63
2023/01/10 00:13:22;;;;;;;2.78;0.75;;;6.40;84.00;;;;;;5011706;28;20065;-64
2023/01/10 00:15:49;;;;;;;2.45;0.80;;;6.40;84.10;;;;;;5007085;28;20293;-62
2023/01/10 00:18:15;;;;;;;2.42;0.80;;;6.40;84.10;;;;;;5005856;28;20248;-63
2023/01/10 00:20:40;;;;;;;1.83;0.88;;;6.40;84.20;;;;;;5008521;28;20120;-62
2023/01/10 00:23:06;;;;;;;1.98;0.90;;;6.40;84.40;;;;;;5013351;28;20034;-62
2023/01/10 00:25:33;;;;;;;1.70;0.80;;;6.40;84.50;;;;;;5004906;28;20026;-62
2023/01/10 00:28:09;;;;;;;1.98;1.05;;;6.30;84.70;;;;;;5006418;28;20124;-61
2023/01/10 00:30:37;;;;;;;2.70;0.80;;;6.30;84.70;;;;;;5006430;28;20046;-62
2023/01/10 00:33:03;;;;;;;1.30;0.80;;;6.30;84.90;;;;;;5011270;28;20030;-62
2023/01/10 00:35:29;;;;;;;2.38;1.00;;;6.30;84.90;;;;;;5007010;28;20049;-62
2023/01/10 00:38:00;;;;;;;2.60;0.88;;;6.20;85.00;;;;;;5012394;28;20034;-62
2023/01/10 00:40:26;;;;;;;1.80;0.98;;;6.20;85.20;;;;;;5011089;28;20041;-61
2023/01/10 00:45:36;;;;;;;1.63;0.83;;;6.20;85.30;;;;;;5005265;28;20048;-62
2023/01/10 00:48:01;;;;;;;1.23;0.80;;;6.20;85.30;;;;;;5003856;28;20277;-62
2023/01/10 00:50:27;;;;;;;1.10;1.00;;;6.20;85.40;;;;;;5005413;28;20439;-61
2023/01/10 00:52:52;;;;;;;1.50;1.17;;;6.20;85.40;;;;;;5003027;28;20049;-61
2023/01/10 00:55:18;;;;;;;1.58;1.20;;;6.20;85.40;;;;;;5005958;28;20574;-62
2023/01/10 00:57:43;;;;;;;1.67;1.00;;;6.20;85.40;;;;;;5008242;28;20516;-62
2023/01/10 01:00:11;;;;;;;1.77;1.10;;;6.20;85.50;;;;;;5005516;28;20034;-62
2023/01/10 01:02:37;;;;;;;1.45;1.30;;;6.10;85.60;;;;;;5007186;28;20094;-63
2023/01/10 01:05:03;;;;;;;1.85;1.30;;;6.10;85.70;;;;;;5009614;28;20041;-63
2023/01/10 01:07:29;;;;;;;1.85;1.08;;;6.10;85.90;;;;;;5011468;28;20048;-63
2023/01/10 01:12:39;;;;;;;1.42;1.20;;;6.10;86.10;;;;;;5007087;28;20479;-63
2023/01/10 01:15:05;;;;;;;1.50;1.40;;;6.10;86.00;;;;;;5010089;28;20058;-62
2023/01/10 01:17:30;;;;;;;3.22;1.40;;;6.10;86.10;;;;;;5014377;28;20064;-63
2023/01/10 01:19:56;;;;;;;1.95;1.20;;;6.10;86.10;;;;;;5011512;28;20057;-63
2023/01/10 01:22:21;;;;;;;1.40;1.30;;;6.10;86.10;;;;;;5015288;28;20072;-63
2023/01/10 01:24:47;;;;;;;1.20;1.10;;;6.10;86.10;;;;;;5015475;28;20493;-62
2023/01/10 01:27:13;;;;;;;1.85;1.52;;;6.10;86.00;;;;;;5014662;28;20111;-63
2023/01/10 01:29:38;;;;;;;1.55;1.33;;;6.10;86.00;;;;;;5011293;28;20042;-61
2023/01/10 01:32:04;;;;;;;1.77;1.25;;;6.10;86.00;;;;;;5015903;28;20057;-62
2023/01/10 01:34:29;;;;;;;1.55;1.27;;;6.10;85.90;;;;;;5018456;28;20057;-63
2023/01/10 01:36:57;;;;;;;1.45;1.30;;;6.10;85.90;;;;;;5015358;28;20215;-62
2023/01/10 01:39:23;;;;;;;2.00;1.40;;;6.10;85.80;;;;;;5018072;28;20481;-62
2023/01/10 01:41:57;;;;;;;1.63;1.40;;;6.10;85.70;;;;;;5015646;28;20036;-63
2023/01/10 01:44:28;;;;;;;1.77;1.30;;;6.10;85.60;;;;;;5014470;28;20029;-62
2023/01/10 01:47:02;;;;;;;1.58;1.48;;;6.10;86.40;;;;;;5012617;28;20030;-63
2023/01/10 01:49:31;;;;;;;1.20;1.10;;;6.10;85.60;;;;;;5011380;28;20038;-63
2023/01/10 01:52:06;;;;;;;1.33;1.15;;;6.10;85.50;;;;;;5015025;28;20037;-61
2023/01/10 01:54:34;;;;;;;1.30;1.20;;;6.00;85.50;;;;;;5014371;28;20096;-63
2023/01/10 01:57:05;;;;;;;1.40;1.30;;;6.00;85.60;;;;;;5012650;28;20045;-62
2023/01/10 01:59:37;;;;;;;1.20;1.10;;;6.00;85.60;;;;;;5012914;28;20198;-63
2023/01/10 02:02:13;;;;;;;2.00;1.55;;;6.00;85.60;;;;;;5014898;28;20029;-62
2023/01/10 02:05:01;;;;;;;1.85;1.63;;;6.00;85.80;;;;;;5024839;28;20154;-63
2023/01/10 02:07:32;;;;;;;2.67;1.30;;;6.00;86.00;;;;;;5019756;28;20223;-63
2023/01/10 02:10:03;;;;;;;2.03;1.30;;;5.90;85.90;;;;;;5014275;28;20119;-63
2023/01/10 02:12:31;;;;;;;1.40;1.30;;;5.90;86.10;;;;;;5011252;28;20049;-62
2023/01/10 02:14:58;;;;;;;1.33;1.17;;;5.90;86.10;;;;;;5012789;28;20089;-60
2023/01/10 02:17:23;;;;;;;2.30;1.30;;;5.90;86.10;;;;;;5012124;28;20041;-62
2023/01/10 02:20:21;;;;;;;1.55;1.30;;;5.90;86.10;;;;;;5009895;28;20042;-63
2023/01/10 02:23:25;;;;;;;1.05;0.95;;;5.90;86.50;;;;;;5013731;28;20029;-62
2023/01/10 02:26:12;;;;;;;1.40;1.20;;;5.90;86.60;;;;;;5005273;28;20060;-62
2023/01/10 02:29:14;;;;;;;1.13;1.10;;;5.90;86.60;;;;;;5011636;28;20037;-62
2023/01/10 02:32:08;;;;;;;1.35;1.25;;;5.90;87.00;;;;;;5013045;28;20045;-63
2023/01/10 02:34:50;;;;;;;1.10;1.10;;;5.90;86.90;;;;;;5015620;28;20093;-61
2023/01/10 02:37:28;;;;;;;1.40;0.90;;;5.90;87.20;;;;;;5016377;28;20448;-62
2023/01/10 02:40:33;;;;;;;1.80;0.90;;;5.80;86.80;;;;;;5015310;28;20029;-61
2023/01/10 02:43:17;;;;;;;0.70;0.70;;;5.90;87.30;;;;;;5007060;28;20102;-62
2023/01/10 02:45:53;;;;;;;0.75;0.70;;;5.90;87.10;;;;;;5004956;28;20477;-63
2023/01/10 02:48:20;;;;;;;0.70;0.60;;;5.90;86.90;;;;;;5007747;28;20308;-62
2023/01/10 02:50:57;;;;;;;1.60;0.90;;;5.90;86.80;;;;;;5006885;28;22008;-62
2023/01/10 02:53:30;;;;;;;1.05;0.90;;;6.00;87.00;;;;;;5011172;28;20112;-62
2023/01/10 02:56:11;;;;;;;2.40;0.88;;;6.00;87.00;;;;;;5006763;28;20045;-60
2023/01/10 02:58:52;;;;;;;1.90;0.60;;;6.00;87.00;;;;;;5009240;28;20053;-62
2023/01/10 03:01:39;;;;;;;0.80;0.65;;;6.00;87.00;;;;;;5010224;28;20062;-62
2023/01/10 03:04:50;;;;;;;1.48;0.68;;;6.00;87.00;;;;;;5009851;28;20595;-60
2023/01/10 03:07:34;;;;;;;1.23;0.50;;;6.00;87.20;;;;;;5012948;28;20067;-60
2023/01/10 03:10:06;;;;;;;2.75;0.40;;;5.90;86.80;;;;;;5009728;28;20044;-60
2023/01/10 03:12:45;;;;;;;1.70;0.60;;;5.90;87.00;;;;;;5007862;28;20123;-62
2023/01/10 03:15:16;;;;;;;0.73;0.60;;;5.90;87.20;;;;;;5011605;28;20393;-60
2023/01/10 03:17:45;;;;;;;2.53;0.70;;;5.90;87.20;;;;;;5010466;28;20165;-62
2023/01/10 03:20:11;;;;;;;0.88;0.50;;;5.90;87.20;;;;;;5012082;28;20065;-61
2023/01/10 03:22:39;;;;;;;0.40;0.40;;;5.90;87.50;;;;;;5011940;28;20590;-59
2023/01/10 03:25:09;;;;;;;0.80;0.57;;;5.80;87.50;;;;;;5010842;28;20037;-60
2023/01/10 03:28:01;;;;;;;0.52;0.50;;;5.80;87.50;;;;;;5010004;28;20029;-61
2023/01/10 03:30:31;;;;;;;0.60;0.50;;;5.80;88.00;;;;;;5008283;28;20569;-62
2023/01/10 03:32:58;;;;;;;0.50;0.50;;;5.80;87.90;;;;;;5011771;28;20046;-62
2023/01/10 03:35:49;;;;;;;1.90;0.70;;;5.80;87.90;;;;;;5013857;28;20505;-61
2023/01/10 03:38:36;;;;;;;0.50;0.50;;;5.80;88.10;;;;;;5016124;28;20042;-60
2023/01/10 03:41:10;;;;;;;0.85;0.50;;;5.80;88.50;;;;;;5016634;28;20112;-61
2023/01/10 03:47:07;;;;;;;0.70;0.50;;;5.70;88.60;;;;;;5006767;28;20056;-62
2023/01/10 03:49:36;;;;;;;0.63;0.60;;;5.70;88.40;;;;;;5007132;28;20041;-63
2023/01/10 03:52:03;;;;;;;1.13;0.32;;;5.70;88.40;;;;;;5011510;28;20030;-63
2023/01/10 03:54:29;;;;;;;1.17;0.50;;;5.60;88.40;;;;;;5012897;28;20481;-63
2023/01/10 03:56:54;;;;;;;1.52;0.40;;;5.60;88.40;;;;;;5012760;28;20404;-62
2023/01/10 03:59:23;;;;;;;0.50;0.30;;;5.60;88.30;;;;;;5011459;28;20040;-62
2023/01/10 04:01:49;;;;;;;0.40;0.28;;;5.60;88.40;;;;;;5009179;28;20034;-63
2023/01/10 04:04:15;;;;;;;0.65;0.50;;;5.60;88.50;;;;;;5009609;28;20212;-62
2023/01/10 04:06:40;;;;;;;1.17;0.50;;;5.60;88.50;;;;;;5008625;28;20026;-62
2023/01/10 04:09:07;;;;;;;0.30;0.30;;;5.60;88.60;;;;;;5011437;28;20450;-62
2023/01/10 04:11:33;;;;;;;0.30;0.30;;;5.60;88.70;;;;;;5007223;28;20497;-62
2023/01/10 04:13:58;;;;;;;0.40;0.20;;;5.60;88.70;;;;;;5008733;28;20033;-60
2023/01/10 04:16:24;;;;;;;0.77;0.30;;;5.60;88.70;;;;;;5006688;28;20038;-60
2023/01/10 04:18:49;;;;;;;0.28;0.28;;;5.60;88.60;;;;;;5009824;28;20401;-60
2023/01/10 04:21:15;;;;;;;0.20;0.20;;;5.70;88.70;;;;;;5011030;28;20052;-59
2023/01/10 04:23:41;;;;;;;0.70;0.32;;;5.70;88.60;;;;;;5012007;28;20113;-61
2023/01/10 04:26:06;;;;;;;0.65;0.38;;;5.70;88.70;;;;;;5006391;28;20048;-60
2023/01/10 04:28:32;;;;;;;0.88;0.30;;;5.70;88.70;;;;;;5005844;28;20464;-62
2023/01/10 04:30:58;;;;;;;0.73;0.40;;;5.70;88.70;;;;;;5005160;28;20559;-60
2023/01/10 04:33:23;;;;;;;0.88;0.57;;;5.70;88.70;;;;;;5014484;28;20100;-60
2023/01/10 04:35:50;;;;;;;1.05;0.40;;;5.70;88.60;;;;;;5008899;28;20040;-59
2023/01/10 04:38:17;;;;;;;0.82;0.20;;;5.70;88.60;;;;;;5007971;28;20046;-61
2023/01/10 04:40:43;;;;;;;0.13;0.10;;;5.70;88.40;;;;;;5002660;28;20030;-61
2023/01/10 04:43:10;;;;;;;0.10;0.10;;;5.70;88.40;;;;;;5003456;28;20042;-61
2023/01/10 04:45:36;;;;;;;0.95;0.10;;;5.70;88.40;;;;;;5009599;28;20042;-62
2023/01/10 04:48:02;;;;;;;0.60;0.10;;;5.70;88.20;;;;;;5003620;28;20080;-59
2023/01/10 04:50:27;;;;;;;0.10;0.10;;;5.70;88.20;;;;;;5002661;28;20568;-62
2023/01/10 04:52:53;;;;;;;0.10;0.08;;;5.70;88.10;;;;;;5003842;28;20037;-61
2023/01/10 04:55:19;;;;;;;0.10;0.10;;;5.70;87.80;;;;;;5002698;28;20108;-61
2023/01/10 04:57:44;;;;;;;1.42;1.00;;;5.70;88.00;;;;;;5003783;28;20381;-62
2023/01/10 05:00:11;;;;;;;0.52;0.20;;;5.70;87.90;;;;;;5005745;28;20547;-59
2023/01/10 05:02:42;;;;;;;0.40;0.40;;;5.70;88.00;;;;;;5012008;28;20114;-59
2023/01/10 05:05:10;;;;;;;0.50;0.50;;;5.70;87.90;;;;;;5010759;28;20045;-61
2023/01/10 05:07:36;;;;;;;2.15;0.30;;;5.70;87.90;;;;;;5012325;28;20132;-61
2023/01/10 05:10:02;;;;;;;0.20;0.20;;;5.70;87.90;;;;;;5007888;28;20061;-62
2023/01/10 05:12:28;;;;;;;0.30;0.30;;;5.70;87.90;;;;;;5004657;28;20575;-61
2023/01/10 05:14:53;;;;;;;1.50;0.90;;;5.70;87.90;;;;;;5007505;28;20132;-61
2023/01/10 05:17:19;;;;;;;1.20;0.50;;;5.70;87.90;;;;;;5010144;28;20041;-61
2023/01/10 05:19:45;;;;;;;0.73;0.50;;;5.70;88.00;;;;;;5003387;28;20041;-62
2023/01/10 05:22:11;;;;;;;2.00;0.55;;;5.60;88.00;;;;;;5006801;28;20026;-61
2023/01/10 05:24:36;;;;;;;0.50;0.50;;;5.60;88.20;;;;;;5006326;28;20037;-62
2023/01/10 05:27:02;;;;;;;1.70;0.47;;;5.60;88.20;;;;;;5012732;28;20041;-59
2023/01/10 05:29:27;;;;;;;0.40;0.22;;;5.60;88.20;;;;;;5013996;28;20120;-60
2023/01/10 05:31:53;;;;;;;1.83;0.50;;;5.60;88.30;;;;;;5011659;28;20045;-61
2023/01/10 05:34:19;;;;;;;0.90;0.70;;;5.60;88.40;;;;;;5015289;28;20048;-60
2023/01/10 05:36:45;;;;;;;2.03;1.23;;;5.60;88.20;;;;;;5012729;28;20129;-59
2023/01/10 05:39:12;;;;;;;2.65;1.30;;;5.60;88.20;;;;;;5013720;28;20117;-60
2023/01/10 05:41:37;;;;;;;1.23;0.88;;;5.60;88.20;;;;;;5014630;28;20049;-59
2023/01/10 05:44:03;;;;;;;3.10;0.70;;;5.50;88.20;;;;;;5012750;28;20330;-62
2023/01/10 05:46:28;;;;;;;1.55;0.88;;;5.60;88.30;;;;;;5010659;28;20330;-62
2023/01/10 05:48:54;;;;;;;2.35;0.75;;;5.60;88.30;;;;;;5013596;28;20042;-62
2023/01/10 05:51:20;;;;;;;1.63;1.20;;;5.60;88.30;;;;;;5014606;28;20038;-62
2023/01/10 05:53:45;;;;;;;1.75;0.73;;;5.60;89.10;;;;;;5013067;28;20123;-61
2023/01/10 05:56:11;;;;;;;1.60;0.77;;;5.60;88.20;;;;;;5013416;28;20052;-62
2023/01/10 05:58:36;;;;;;;3.80;0.85;;;5.60;88.10;;;;;;5012880;28;20065;-62
2023/01/10 06:01:02;;;;;;;4.93;1.50;;;5.60;88.10;;;;;;5012751;28;20037;-61
2023/01/10 06:03:27;;;;;;;3.60;1.45;;;5.60;87.70;;;;;;5016272;28;20528;-62
2023/01/10 06:05:56;;;;;;;5.07;1.38;;;5.60;87.70;;;;;;5017414;28;20231;-61
2023/01/10 06:08:23;;;;;;;6.75;2.08;;;5.70;87.70;;;;;;5016450;28;20188;-61
2023/01/10 06:10:48;;;;;;;2.70;1.10;;;5.70;87.60;;;;;;5016322;28;20785;-61
2023/01/10 06:13:14;;;;;;;6.32;1.90;;;5.60;87.50;;;;;;5018326;28;20053;-61
2023/01/10 06:15:40;;;;;;;6.03;2.25;;;5.70;87.60;;;;;;5014745;28;20266;-61
2023/01/10 06:18:07;;;;;;;7.22;2.33;;;5.60;87.50;;;;;;5017809;28;20038;-61
2023/01/10 06:20:33;;;;;;;10.35;3.80;;;5.70;87.70;;;;;;5016623;28;20029;-59
2023/01/10 06:23:01;;;;;;;5.55;1.73;;;5.70;87.50;;;;;;5016783;28;20044;-60
2023/01/10 06:25:28;;;;;;;4.38;1.35;;;5.70;87.30;;;;;;5015079;28;20405;-58
2023/01/10 06:27:53;;;;;;;7.32;2.22;;;5.70;87.20;;;;;;5017842;28;20038;-60
2023/01/10 06:30:19;;;;;;;4.20;1.42;;;5.70;87.20;;;;;;5015881;28;20054;-58
2023/01/10 06:32:44;;;;;;;4.88;1.30;;;5.70;87.20;;;;;;5016039;28;20060;-61
2023/01/10 06:35:10;;;;;;;4.05;1.30;;;5.70;87.10;;;;;;5017684;28;20045;-61
2023/01/10 06:37:36;;;;;;;3.47;1.23;;;5.70;87.10;;;;;;5016856;28;20041;-61
2023/01/10 06:40:03;;;;;;;5.60;1.60;;;5.70;87.00;;;;;;5014672;28;20037;-61
2023/01/10 06:42:28;;;;;;;7.60;1.95;;;5.70;86.90;;;;;;5015798;28;20077;-59
2023/01/10 06:44:54;;;;;;;5.97;1.90;;;5.70;87.00;;;;;;5015756;28;20037;-61
2023/01/10 06:47:20;;;;;;;4.60;1.70;;;5.70;87.00;;;;;;5016153;28;20037;-60
2023/01/10 06:49:45;;;;;;;7.03;1.92;;;5.70;86.80;;;;;;5014609;28;20032;-59
2023/01/10 06:52:11;;;;;;;3.25;1.17;;;5.60;86.70;;;;;;5016151;28;20065;-61
2023/01/10 06:54:36;;;;;;;5.15;1.40;;;5.60;86.80;;;;;;5016609;28;20061;-62
2023/01/10 06:57:02;;;;;;;5.05;2.25;;;5.60;87.00;;;;;;5016318;28;20496;-61
2023/01/10 06:59:27;;;;;;;5.07;1.80;;;5.60;87.20;;;;;;5017160;28;20115;-59
2023/01/10 07:01:53;;;;;;;4.03;1.80;;;5.70;87.30;;;;;;5015203;28;20034;-61
2023/01/10 07:04:18;;;;;;;8.23;1.83;;;5.60;87.30;;;;;;5016086;28;20041;-62
2023/01/10 07:06:44;;;;;;;6.15;1.30;;;5.60;87.30;;;;;;5017205;28;20030;-60
2023/01/10 07:09:10;;;;;;;6.50;1.55;;;5.60;87.20;;;;;;5016456;28;20113;-60
2023/01/10 07:11:35;;;;;;;4.63;1.25;;;5.60;87.20;;;;;;5014940;28;20502;-59
2023/01/10 07:14:01;;;;;;;7.18;1.40;;;5.60;87.10;;;;;;5015102;28;20036;-60
2023/01/10 07:16:27;;;;;;;3.90;1.10;;;5.60;87.00;;;;;;5014997;28;20525;-60
2023/01/10 07:18:53;;;;;;;3.97;1.25;;;5.60;87.10;;;;;;5016005;28;20038;-61
2023/01/10 07:21:19;;;;;;;3.60;1.25;;;5.60;87.20;;;;;;5013551;28;20029;-60
2023/01/10 07:23:51;;;;;;;5.40;1.40;;;5.60;87.20;;;;;;5015684;28;20500;-61
2023/01/10 07:26:18;;;;;;;4.38;1.92;;;5.60;87.30;;;;;;5015926;28;20505;-60
2023/01/10 07:28:47;;;;;;;3.42;1.55;;;5.70;87.30;;;;;;5015025;28;20038;-59
2023/01/10 07:31:13;;;;;;;4.50;1.80;;;5.70;87.30;;;;;;5014513;28;20556;-61
2023/01/10 07:33:39;;;;;;;5.50;1.45;;;5.80;87.30;;;;;;5014818;28;20041;-59
2023/01/10 07:36:04;;;;;;;2.63;1.20;;;5.80;87.20;;;;;;5013879;28;20068;-61
2023/01/10 07:38:30;;;;;;;5.05;1.35;;;5.80;87.10;;;;;;5014773;28;20057;-60
2023/01/10 07:40:56;;;;;;;5.25;1.60;;;5.80;87.00;;;;;;5015676;28;20342;-60
2023/01/10 07:43:21;;;;;;;4.60;1.30;;;5.90;86.80;;;;;;5015774;28;20091;-61
2023/01/10 07:45:47;;;;;;;5.03;1.40;;;5.90;86.60;;;;;;5014541;28;20497;-62
2023/01/10 07:48:13;;;;;;;4.78;1.88;;;5.90;86.30;;;;;;5013683;28;20038;-62
2023/01/10 07:50:38;;;;;;;3.90;1.40;;;5.90;86.30;;;;;;5013971;28;20095;-62
2023/01/10 07:53:06;;;;;;;3.20;1.30;;;5.90;86.10;;;;;;5016015;28;20084;-61
2023/01/10 07:55:33;;;;;;;6.82;1.30;;;5.90;86.10;;;;;;5015323;28;20041;-61
2023/01/10 07:57:59;;;;;;;6.88;1.50;;;5.90;86.10;;;;;;5014195;28;20499;-61
2023/01/10 08:00:24;;;;;;;6.28;1.92;;;5.90;86.10;;;;;;5012608;28;20040;-61
2023/01/10 08:02:54;;;;;;;3.60;1.52;;;5.90;86.20;;;;;;5013190;28;21088;-61
2023/01/10 08:05:21;;;;;;;7.32;1.85;;;5.90;86.30;;;;;;5015520;28;20049;-60
2023/01/10 08:07:46;;;;;;;4.45;1.40;;;5.90;86.30;;;;;;5012519;28;20041;-60
2023/01/10 08:10:12;;;;;;;3.63;1.38;;;5.90;86.30;;;;;;5014744;28;20034;-60
2023/01/10 08:12:37;;;;;;;2.28;1.30;;;5.90;86.40;;;;;;5014245;28;20386;-59
2023/01/10 08:15:03;;;;;;;4.00;1.25;;;6.00;86.30;;;;;;5013985;28;20034;-60
2023/01/10 08:17:32;;;;;;;4.38;1.42;;;5.90;86.30;;;;;;5014616;28;20266;-61
2023/01/10 08:19:58;;;;;;;4.78;1.67;;;6.00;86.30;;;;;;5014102;28;20038;-62
2023/01/10 08:22:23;;;;;;;3.03;1.13;;;5.90;87.00;;;;;;5015995;28;20049;-61
2023/01/10 08:24:49;;;;;;;2.67;1.10;;;6.00;86.20;;;;;;5013389;28;20072;-61
2023/01/10 08:27:14;;;;;;;3.38;1.23;;;6.00;86.10;;;;;;5013284;28;20033;-61
2023/01/10 08:29:41;;;;;;;5.07;1.33;;;6.00;86.00;;;;;;5012518;28;20045;-61
2023/01/10 08:32:07;;;;;;;3.67;1.33;;;5.90;86.00;;;;;;5014845;28;20037;-61
2023/01/10 08:34:32;;;;;;;5.43;1.63;;;5.90;86.00;;;;;;5014429;28;20409;-60
2023/01/10 08:36:58;;;;;;;7.40;1.98;;;6.00;86.10;;;;;;5014076;28;20099;-61
2023/01/10 08:39:25;;;;;;;6.35;1.60;;;6.00;86.30;;;;;;5014498;28;20088;-61
2023/01/10 08:41:51;;;;;;;8.15;1.80;;;6.00;86.20;;;;;;5013861;28;20034;-61
2023/01/10 08:44:17;;;;;;;2.72;1.08;;;6.00;86.10;;;;;;5013954;28;20160;-61
2023/01/10 08:46:43;;;;;;;3.00;1.20;;;6.00;86.10;;;;;;5015166;28;20137;-61
2023/01/10 08:49:09;;;;;;;5.75;1.38;;;6.00;86.10;;;;;;5013413;28;20412;-61
2023/01/10 08:51:35;;;;;;;3.13;1.00;;;6.00;86.10;;;;;;5014740;28;20030;-61
2023/01/10 08:54:00;;;;;;;5.97;1.42;;;6.00;86.00;;;;;;5014746;28;20037;-61
2023/01/10 08:56:26;;;;;;;4.68;1.00;;;6.00;85.90;;;;;;5014479;28;20041;-60
2023/01/10 08:58:51;;;;;;;3.90;1.00;;;6.00;85.80;;;;;;5012299;28;20033;-61
2023/01/10 09:01:18;;;;;;;3.40;1.13;;;6.00;85.90;;;;;;5012700;28;20034;-60
2023/01/10 09:03:43;;;;;;;4.65;1.27;;;6.00;85.80;;;;;;5012031;28;20030;-61
2023/01/10 09:06:09;;;;;;;6.63;2.03;;;6.00;85.80;;;;;;5016097;28;20049;-59
2023/01/10 09:08:35;;;;;;;7.82;1.55;;;6.00;85.80;;;;;;5015215;28;20576;-61
2023/01/10 09:11:01;;;;;;;4.57;1.73;;;6.00;85.90;;;;;;5014345;28;20081;-61
2023/01/10 09:13:31;;;;;;;2.85;1.38;;;6.00;85.90;;;;;;5016070;28;20515;-60
2023/01/10 09:15:58;;;;;;;3.38;1.15;;;6.00;85.80;;;;;;5012999;28;20034;-61
2023/01/10 09:18:25;;;;;;;5.00;1.50;;;6.00;85.80;;;;;;5015733;28;20030;-61
2023/01/10 09:20:51;;;;;;;4.82;0.88;;;6.00;86.00;;;;;;5014111;28;20493;-61
2023/01/10 09:23:19;;;;;;;3.60;1.05;;;6.00;85.90;;;;;;5015545;28;20128;-61
2023/01/10 09:25:46;;;;;;;3.42;1.05;;;6.00;85.90;;;;;;5015641;28;20041;-61
2023/01/10 09:28:12;;;;;;;9.05;1.45;;;6.00;85.80;;;;;;5014969;28;20046;-60
2023/01/10 09:30:38;;;;;;;3.45;1.58;;;6.00;85.80;;;;;;5014391;28;20498;-61
2023/01/10 09:33:04;;;;;;;5.13;2.13;;;6.00;85.90;;;;;;5015913;28;20088;-61
2023/01/10 09:35:31;;;;;;;5.75;2.63;;;6.10;86.10;;;;;;5014555;28;20418;-60
2023/01/10 09:37:59;;;;;;;6.55;2.40;;;6.00;86.20;;;;;;5016295;28;20091;-59
2023/01/10 09:40:28;;;;;;;10.15;2.60;;;6.10;86.30;;;;;;5017365;28;20041;-61
2023/01/10 09:43:21;;;;;;;8.13;3.30;;;6.10;86.30;;;;;;5018188;28;20057;-61
2023/01/10 09:46:04;;;;;;;4.00;2.28;;;6.10;86.50;;;;;;5017841;28;20037;-62
2023/01/10 09:48:57;;;;;;;7.82;2.88;;;6.00;86.60;;;;;;5019261;28;20473;-61
2023/01/10 09:51:29;;;;;;;7.55;2.00;;;6.00;86.60;;;;;;5017992;28;20178;-62
2023/01/10 09:53:58;;;;;;;6.60;3.28;;;6.10;86.50;;;;;;5018443;28;20258;-61
2023/01/10 09:56:25;;;;;;;3.20;1.80;;;6.10;86.50;;;;;;5017947;28;20064;-61
2023/01/10 09:58:51;;;;;;;4.38;1.60;;;6.10;86.50;;;;;;5015450;28;20030;-61
2023/01/10 10:01:26;;;;;;;5.88;2.25;;;6.10;86.50;;;;;;5019330;28;20044;-61
2023/01/10 10:04:21;;;;;;;9.25;4.10;;;6.10;86.50;;;;;;5017219;28;20077;-61
2023/01/10 10:06:51;;;;;;;8.35;3.70;;;6.20;86.60;;;;;;5017878;28;20034;-61
2023/01/10 10:09:28;;;;;;;8.93;3.50;;;6.20;86.50;;;;;;5017796;28;20026;-61
2023/01/10 10:12:28;;;;;;;9.10;4.45;;;6.20;86.50;;;;;;5016417;28;20057;-61
2023/01/10 10:15:32;;;;;;;8.15;2.92;;;6.30;86.50;;;;;;5017202;28;20397;-61
2023/01/10 10:18:31;;;;;;;3.70;1.52;;;6.30;86.50;;;;;;5018225;28;20095;-60
2023/01/10 10:21:10;;;;;;;7.65;2.78;;;6.40;86.10;;;;;;5018017;28;20113;-60
2023/01/10 10:23:39;;;;;;;5.82;1.70;;;6.40;86.10;;;;;;5017790;28;20030;-61
2023/01/10 10:26:42;;;;;;;4.43;2.03;;;6.50;86.30;;;;;;5019557;28;20188;-61
2023/01/10 10:29:39;;;;;;;6.40;2.67;;;6.50;86.30;;;;;;5016924;28;20068;-61
2023/01/10 10:32:22;;;;;;;4.25;1.90;;;6.60;86.50;;;;;;5016826;28;20436;-61
2023/01/10 10:34:59;;;;;;;3.67;1.52;;;6.60;86.60;;;;;;5017397;28;20311;-61
2023/01/10 10:37:35;;;;;;;4.00;1.70;;;6.70;86.60;;;;;;5017492;28;20033;-60
2023/01/10 10:40:31;;;;;;;4.20;1.42;;;6.80;86.50;;;;;;5016961;28;20040;-58
2023/01/10 10:43:04;;;;;;;3.53;1.40;;;6.80;86.50;;;;;;5017201;28;20116;-59
2023/01/10 10:45:34;;;;;;;4.57;1.58;;;6.90;86.20;;;;;;5017113;28;20120;-60
2023/01/10 10:48:09;;;;;;;6.07;1.15;;;6.90;86.10;;;;;;5016990;28;20420;-61
2023/01/10 10:50:54;;;;;;;4.68;1.50;;;6.90;86.00;;;;;;5016148;28;20386;-60
2023/01/10 10:53:20;;;;;;;5.93;1.23;;;7.00;85.80;;;;;;5018246;28;20049;-61
2023/01/10 10:55:46;;;;;;;3.75;1.20;;;7.00;85.60;;;;;;5016827;28;20103;-61
2023/01/10 10:58:13;;;;;;;6.32;1.90;;;7.00;85.30;;;;;;5017320;28;20038;-59
2023/01/10 11:00:39;;;;;;;3.50;1.40;;;7.10;85.20;;;;;;5017557;28;20413;-59
2023/01/10 11:03:17;;;;;;;4.45;1.80;;;7.10;84.70;;;;;;5016492;28;20049;-60
2023/01/10 11:05:45;;;;;;;4.13;1.50;;;7.10;83.70;;;;;;5018141;28;20042;-61
2023/01/10 11:08:14;;;;;;;5.88;2.05;;;7.10;83.80;;;;;;5016774;28;20046;-59
2023/01/10 11:10:45;;;;;;;7.35;2.17;;;7.20;82.70;;;;;;5016658;28;20041;-60
2023/01/10 11:13:31;;;;;;;6.00;1.90;;;7.10;82.60;;;;;;5017575;28;20092;-59
2023/01/10 11:15:58;;;;;;;6.78;2.15;;;7.10;82.00;;;;;;5016220;28;20507;-60
2023/01/10 11:18:26;;;;;;;5.97;1.70;;;7.10;82.30;;;;;;5015367;28;20045;-60
2023/01/10 11:21:03;;;;;;;7.18;2.17;;;7.10;82.60;;;;;;5015396;28;20080;-60
2023/01/10 11:23:48;;;;;;;6.15;1.92;;;7.10;82.60;;;;;;5016155;28;20314;-59
2023/01/10 11:26:29;;;;;;;7.57;2.30;;;7.10;82.20;;;;;;5017527;28;20045;-59
2023/01/10 11:29:15;;;;;;;5.13;2.10;;;7.10;82.20;;;;;;5017195;28;20284;-60
2023/01/10 11:31:41;;;;;;;6.05;1.60;;;7.10;82.00;;;;;;5016578;28;20042;-60
2023/01/10 11:34:29;;;;;;;5.97;1.90;;;7.10;82.30;;;;;;5015273;28;20526;-60
2023/01/10 11:37:17;;;;;;;5.03;1.95;;;7.10;81.70;;;;;;5016412;28;20037;-58
2023/01/10 11:39:43;;;;;;;7.35;2.40;;;7.10;81.90;;;;;;5017498;28;20373;-60
2023/01/10 11:42:24;;;;;;;5.72;2.45;;;7.20;82.60;;;;;;5015358;28;20497;-60
2023/01/10 11:44:49;;;;;;;3.47;1.55;;;7.20;81.70;;;;;;5015802;28;20107;-60
2023/01/10 11:47:19;;;;;;;5.10;1.60;;;7.20;82.50;;;;;;5016521;28;20034;-61
2023/01/10 11:49:47;;;;;;;6.47;1.90;;;7.20;82.40;;;;;;5016056;28;20034;-61
2023/01/10 11:52:28;;;;;;;3.50;1.30;;;7.30;82.20;;;;;;5016451;28;20034;-61
2023/01/10 11:54:59;;;;;;;4.22;1.50;;;7.30;81.60;;;;;;5014852;28;20038;-60
2023/01/10 11:57:27;;;;;;;7.63;1.35;;;7.30;81.50;;;;;;5016498;28;20394;-61
2023/01/10 11:59:59;;;;;;;5.82;1.20;;;7.40;81.70;;;;;;5014691;28;20038;-60
2023/01/10 12:02:36;;;;;;;6.80;1.40;;;7.40;81.80;;;;;;5018414;28;20414;-60
2023/01/10 12:05:08;;;;;;;3.45;1.33;;;7.40;81.70;;;;;;5017481;28;20116;-61
2023/01/10 12:08:05;;;;;;;4.90;1.42;;;7.50;81.00;;;;;;5018191;28;20528;-60
2023/01/10 12:10:32;;;;;;;7.22;1.40;;;7.30;80.00;;;;;;5018737;28;20056;-61
2023/01/10 12:13:11;;;;;;;5.53;1.40;;;7.50;80.30;;;;;;5017782;28;20042;-61
2023/01/10 12:15:37;;;;;;;4.25;1.00;;;7.50;80.00;;;;;;5015718;28;20397;-61
2023/01/10 12:18:04;;;;;;;4.78;1.13;;;7.50;79.60;;;;;;5017293;28;20037;-61
2023/01/10 12:20:43;;;;;;;6.95;1.50;;;7.50;80.00;;;;;;5014689;28;20033;-60
2023/01/10 12:23:15;;;;;;;4.35;1.45;;;7.50;79.50;;;;;;5015680;28;20037;-60
2023/01/10 12:25:44;;;;;;;4.43;1.20;;;7.50;79.50;;;;;;5016708;28;20050;-58
2023/01/10 12:28:19;;;;;;;3.83;1.10;;;7.60;79.80;;;;;;5014891;28;20046;-60
2023/01/10 12:30:49;;;;;;;5.30;1.20;;;7.60;79.30;;;;;;5014945;28;20041;-61
2023/01/10 12:33:20;;;;;;;6.78;1.02;;;7.60;79.60;;;;;;5014201;28;20087;-61
2023/01/10 12:35:49;;;;;;;3.38;1.10;;;7.60;79.10;;;;;;5015373;28;20588;-60
2023/01/10 12:44:10;;;;;;;3.05;0.93;;;7.70;78.30;;;;;;5014585;28;20040;-60
2023/01/10 12:44:10;;;;;;;5.65;1.20;;;7.70;78.40;;;;;;5013582;28;20084;-60
2023/01/10 12:46:48;;;;;;;5.05;0.88;;;7.70;77.50;;;;;;5015191;28;20513;-61
2023/01/10 12:49:14;;;;;;;1.98;0.75;;;7.70;76.70;;;;;;5014798;28;20401;-61
2023/01/10 12:51:41;;;;;;;3.80;0.90;;;7.70;77.70;;;;;;5017241;28;20033;-61
2023/01/10 12:54:23;;;;;;;7.13;1.10;;;7.70;77.70;;;;;;5017217;28;20038;-61
2023/01/10 12:56:50;;;;;;;4.53;0.73;;;7.70;76.80;;;;;;5015912;28;20038;-61
2023/01/10 12:59:24;;;;;;;4.22;1.15;;;7.70;77.70;;;;;;5016725;28;20052;-61
2023/01/10 13:01:55;;;;;;;3.08;0.93;;;7.80;77.30;;;;;;5017438;28;20034;-61
2023/01/10 13:04:23;;;;;;;8.20;1.20;;;7.80;77.30;;;;;;5017273;28;20041;-58
2023/01/10 13:06:49;;;;;;;5.60;1.10;;;7.80;77.30;;;;;;5017154;28;20037;-59
2023/01/10 13:09:19;;;;;;;4.43;1.00;;;7.80;77.00;;;;;;5016735;28;20034;-60
2023/01/10 13:11:51;;;;;;;2.10;0.95;;;7.80;76.50;;;;;;5017784;28;20080;-58
2023/01/10 13:14:21;;;;;;;3.28;0.57;;;7.80;76.00;;;;;;5021281;28;20038;-61
2023/01/10 13:17:12;;;;;;;3.03;0.90;;;7.80;76.10;;;;;;5020148;28;20078;-60
2023/01/10 13:19:37;;;;;;;5.13;0.70;;;7.80;74.70;;;;;;5021036;28;20025;-61
2023/01/10 13:22:21;;;;;;;3.13;0.75;;;7.80;76.00;;;;;;5020907;28;20042;-59
2023/01/10 13:25:00;;;;;;;2.33;1.10;;;7.80;73.70;;;;;;5020136;28;20057;-60
2023/01/10 13:27:31;;;;;;;2.42;0.90;;;7.80;73.70;;;;;;5021526;28;20078;-58